sensor_id;sensor_type;location;lat;lon;timestamp;pressure;altitude;pressure_sealevel;temperature;humidity
49063;BME280;34876;51.464;-0.150;2023-04-27T00:00:02;101839.61;;;17.74;34.71
49063;BME280;34876;51.464;-0.150;2023-04-27T00:03:23;101837.75;;;17.75;34.76
49063;BME280;34876;51.464;-0.150;2023-04-27T00:05:52;101836.61;;;17.75;34.73
49063;BME280;34876;51.464;-0.150;2023-04-27T00:08:20;101835.30;;;17.76;34.73
49063;BME280;34876;51.464;-0.150;2023-04-27T00:10:50;101833.69;;;17.75;34.74
49063;BME280;34876;51.464;-0.150;2023-04-27T00:13:19;101827.52;;;17.74;34.75
49063;BME280;34876;51.464;-0.150;2023-04-27T00:15:48;101827.15;;;17.74;34.80
49063;BME280;34876;51.464;-0.150;2023-04-27T00:18:18;101825.99;;;17.73;34.78
49063;BME280;34876;51.464;-0.150;2023-04-27T00:20:47;101823.15;;;17.73;34.80
49063;BME280;34876;51.464;-0.150;2023-04-27T00:23:16;101822.08;;;17.73;34.81
49063;BME280;34876;51.464;-0.150;2023-04-27T00:25:45;101820.49;;;17.72;34.80
49063;BME280;34876;51.464;-0.150;2023-04-27T00:28:14;101820.77;;;17.74;34.84
49063;BME280;34876;51.464;-0.150;2023-04-27T00:30:43;101822.61;;;17.72;34.86
49063;BME280;34876;51.464;-0.150;2023-04-27T00:33:13;101821.78;;;17.74;34.82
49063;BME280;34876;51.464;-0.150;2023-04-27T00:35:44;101821.05;;;17.74;34.81
49063;BME280;34876;51.464;-0.150;2023-04-27T00:38:13;101816.32;;;17.73;34.84
49063;BME280;34876;51.464;-0.150;2023-04-27T00:40:43;101814.26;;;17.73;34.87
49063;BME280;34876;51.464;-0.150;2023-04-27T00:43:13;101811.61;;;17.73;34.82
49063;BME280;34876;51.464;-0.150;2023-04-27T00:45:43;101811.80;;;17.73;34.83
49063;BME280;34876;51.464;-0.150;2023-04-27T00:48:12;101808.29;;;17.72;34.86
49063;BME280;34876;51.464;-0.150;2023-04-27T00:50:42;101806.53;;;17.72;34.90
49063;BME280;34876;51.464;-0.150;2023-04-27T00:53:12;101806.25;;;17.72;34.85
49063;BME280;34876;51.464;-0.150;2023-04-27T00:55:42;101801.04;;;17.72;34.89
49063;BME280;34876;51.464;-0.150;2023-04-27T00:58:11;101797.58;;;17.72;34.92
49063;BME280;34876;51.464;-0.150;2023-04-27T01:00:40;101794.85;;;17.71;34.87
49063;BME280;34876;51.464;-0.150;2023-04-27T01:03:09;101784.87;;;17.70;34.90
49063;BME280;34876;51.464;-0.150;2023-04-27T01:05:38;101782.84;;;17.71;34.90
49063;BME280;34876;51.464;-0.150;2023-04-27T01:08:08;101780.71;;;17.71;34.89
49063;BME280;34876;51.464;-0.150;2023-04-27T01:10:37;101773.86;;;17.72;34.87
49063;BME280;34876;51.464;-0.150;2023-04-27T01:13:07;101767.52;;;17.72;34.87
49063;BME280;34876;51.464;-0.150;2023-04-27T01:15:36;101761.33;;;17.71;34.88
49063;BME280;34876;51.464;-0.150;2023-04-27T01:18:05;101757.16;;;17.71;34.87
49063;BME280;34876;51.464;-0.150;2023-04-27T01:20:34;101750.31;;;17.70;34.94
49063;BME280;34876;51.464;-0.150;2023-04-27T01:23:04;101745.49;;;17.69;34.95
49063;BME280;34876;51.464;-0.150;2023-04-27T01:25:34;101747.24;;;17.53;35.29
49063;BME280;34876;51.464;-0.150;2023-04-27T01:28:03;101740.29;;;17.63;35.06
49063;BME280;34876;51.464;-0.150;2023-04-27T01:30:33;101737.13;;;17.42;35.47
49063;BME280;34876;51.464;-0.150;2023-04-27T01:33:02;101733.96;;;17.61;35.10
49063;BME280;34876;51.464;-0.150;2023-04-27T01:35:32;101733.14;;;17.64;35.02
49063;BME280;34876;51.464;-0.150;2023-04-27T01:38:00;101728.58;;;17.65;35.02
49063;BME280;34876;51.464;-0.150;2023-04-27T01:40:29;101727.68;;;17.46;35.30
49063;BME280;34876;51.464;-0.150;2023-04-27T01:42:58;101733.81;;;17.59;34.98
49063;BME280;34876;51.464;-0.150;2023-04-27T01:45:28;101734.99;;;17.59;35.15
49063;BME280;34876;51.464;-0.150;2023-04-27T01:47:57;101733.35;;;17.63;35.10
49063;BME280;34876;51.464;-0.150;2023-04-27T01:50:27;101731.23;;;17.63;35.07
49063;BME280;34876;51.464;-0.150;2023-04-27T01:52:56;101732.17;;;17.64;35.04
49063;BME280;34876;51.464;-0.150;2023-04-27T01:55:25;101733.31;;;17.61;35.14
49063;BME280;34876;51.464;-0.150;2023-04-27T01:57:55;101740.74;;;17.59;34.92
49063;BME280;34876;51.464;-0.150;2023-04-27T02:00:24;101738.27;;;17.55;35.24
49063;BME280;34876;51.464;-0.150;2023-04-27T02:02:54;101741.05;;;17.65;35.15
49063;BME280;34876;51.464;-0.150;2023-04-27T02:05:23;101745.50;;;17.64;35.12
49063;BME280;34876;51.464;-0.150;2023-04-27T02:07:52;101752.97;;;17.68;35.03
49063;BME280;34876;51.464;-0.150;2023-04-27T02:10:22;101754.37;;;17.66;35.09
49063;BME280;34876;51.464;-0.150;2023-04-27T02:12:51;101759.44;;;17.67;35.11
49063;BME280;34876;51.464;-0.150;2023-04-27T02:15:20;101759.68;;;17.69;35.03
49063;BME280;34876;51.464;-0.150;2023-04-27T02:17:51;101765.33;;;17.68;35.06
49063;BME280;34876;51.464;-0.150;2023-04-27T02:20:19;101769.57;;;17.69;35.05
49063;BME280;34876;51.464;-0.150;2023-04-27T02:22:48;101772.02;;;17.64;35.18
49063;BME280;34876;51.464;-0.150;2023-04-27T02:25:18;101770.20;;;17.68;35.10
49063;BME280;34876;51.464;-0.150;2023-04-27T02:27:47;101767.24;;;17.67;35.09
49063;BME280;34876;51.464;-0.150;2023-04-27T02:30:16;101768.60;;;17.70;35.04
49063;BME280;34876;51.464;-0.150;2023-04-27T02:32:45;101769.05;;;17.68;35.08
49063;BME280;34876;51.464;-0.150;2023-04-27T02:35:13;101767.41;;;17.69;35.12
49063;BME280;34876;51.464;-0.150;2023-04-27T02:37:44;101767.54;;;17.70;35.08
49063;BME280;34876;51.464;-0.150;2023-04-27T02:40:13;101764.39;;;17.69;35.13
49063;BME280;34876;51.464;-0.150;2023-04-27T02:42:42;101763.27;;;17.69;35.12
49063;BME280;34876;51.464;-0.150;2023-04-27T02:45:11;101764.28;;;17.69;35.15
49063;BME280;34876;51.464;-0.150;2023-04-27T02:47:41;101757.85;;;17.69;35.10
49063;BME280;34876;51.464;-0.150;2023-04-27T02:50:10;101755.35;;;17.70;35.13
49063;BME280;34876;51.464;-0.150;2023-04-27T02:52:39;101752.80;;;17.69;35.14
49063;BME280;34876;51.464;-0.150;2023-04-27T02:55:08;101751.71;;;17.68;35.19
49063;BME280;34876;51.464;-0.150;2023-04-27T02:57:37;101753.80;;;17.69;35.12
49063;BME280;34876;51.464;-0.150;2023-04-27T03:00:08;101751.92;;;17.67;35.17
49063;BME280;34876;51.464;-0.150;2023-04-27T03:02:39;101749.21;;;17.70;35.17
49063;BME280;34876;51.464;-0.150;2023-04-27T03:05:09;101745.68;;;17.68;35.24
49063;BME280;34876;51.464;-0.150;2023-04-27T03:07:37;101742.84;;;17.69;35.16
49063;BME280;34876;51.464;-0.150;2023-04-27T03:10:08;101743.60;;;17.68;35.19
49063;BME280;34876;51.464;-0.150;2023-04-27T03:12:37;101747.84;;;17.69;35.19
49063;BME280;34876;51.464;-0.150;2023-04-27T03:15:07;101748.67;;;17.69;35.20
49063;BME280;34876;51.464;-0.150;2023-04-27T03:17:37;101752.19;;;17.68;35.23
49063;BME280;34876;51.464;-0.150;2023-04-27T03:20:07;101754.51;;;17.68;35.19
49063;BME280;34876;51.464;-0.150;2023-04-27T03:22:36;101752.34;;;17.68;35.23
49063;BME280;34876;51.464;-0.150;2023-04-27T03:25:06;101747.59;;;17.68;35.24
49063;BME280;34876;51.464;-0.150;2023-04-27T03:27:35;101743.75;;;17.67;35.19
49063;BME280;34876;51.464;-0.150;2023-04-27T03:30:05;101742.58;;;17.69;35.18
49063;BME280;34876;51.464;-0.150;2023-04-27T03:32:34;101740.22;;;17.67;35.25
49063;BME280;34876;51.464;-0.150;2023-04-27T03:35:04;101734.30;;;17.66;35.29
49063;BME280;34876;51.464;-0.150;2023-04-27T03:37:34;101735.36;;;17.67;35.30
49063;BME280;34876;51.464;-0.150;2023-04-27T03:40:03;101733.48;;;17.65;35.34
49063;BME280;34876;51.464;-0.150;2023-04-27T03:42:33;101731.19;;;17.65;35.31
49063;BME280;34876;51.464;-0.150;2023-04-27T03:45:03;101726.26;;;17.64;35.32
49063;BME280;34876;51.464;-0.150;2023-04-27T03:47:33;101728.27;;;17.65;35.33
49063;BME280;34876;51.464;-0.150;2023-04-27T03:50:04;101726.77;;;17.65;35.32
49063;BME280;34876;51.464;-0.150;2023-04-27T03:52:33;101727.11;;;17.66;35.28
49063;BME280;34876;51.464;-0.150;2023-04-27T03:55:03;101729.24;;;17.63;35.33
49063;BME280;34876;51.464;-0.150;2023-04-27T03:57:33;101730.97;;;17.62;35.38
49063;BME280;34876;51.464;-0.150;2023-04-27T04:00:02;101729.86;;;17.63;35.33
49063;BME280;34876;51.464;-0.150;2023-04-27T04:02:36;101729.13;;;17.65;35.33
49063;BME280;34876;51.464;-0.150;2023-04-27T04:05:06;101729.12;;;17.64;35.33
49063;BME280;34876;51.464;-0.150;2023-04-27T04:07:36;101726.31;;;17.65;35.34
49063;BME280;34876;51.464;-0.150;2023-04-27T04:10:06;101719.12;;;17.63;35.38
49063;BME280;34876;51.464;-0.150;2023-04-27T04:12:36;101715.82;;;17.63;35.35
49063;BME280;34876;51.464;-0.150;2023-04-27T04:15:06;101714.59;;;17.63;35.41
49063;BME280;34876;51.464;-0.150;2023-04-27T04:17:35;101712.57;;;17.63;35.38
49063;BME280;34876;51.464;-0.150;2023-04-27T04:20:06;101711.68;;;17.62;35.40
49063;BME280;34876;51.464;-0.150;2023-04-27T04:22:35;101709.79;;;17.63;35.37
49063;BME280;34876;51.464;-0.150;2023-04-27T04:25:06;101708.23;;;17.58;35.49
49063;BME280;34876;51.464;-0.150;2023-04-27T04:27:35;101709.67;;;17.62;35.41
49063;BME280;34876;51.464;-0.150;2023-04-27T04:30:05;101709.66;;;17.64;35.40
49063;BME280;34876;51.464;-0.150;2023-04-27T04:32:35;101710.44;;;17.62;35.42
49063;BME280;34876;51.464;-0.150;2023-04-27T04:35:05;101702.75;;;17.57;35.52
49063;BME280;34876;51.464;-0.150;2023-04-27T04:37:39;101699.31;;;17.60;35.46
49063;BME280;34876;51.464;-0.150;2023-04-27T04:40:09;101697.40;;;17.59;35.48
49063;BME280;34876;51.464;-0.150;2023-04-27T04:42:39;101697.24;;;17.62;35.45
49063;BME280;34876;51.464;-0.150;2023-04-27T04:45:08;101692.27;;;17.50;35.68
49063;BME280;34876;51.464;-0.150;2023-04-27T04:47:37;101688.80;;;17.53;35.64
49063;BME280;34876;51.464;-0.150;2023-04-27T04:50:07;101690.62;;;17.57;35.61
49063;BME280;34876;51.464;-0.150;2023-04-27T04:52:36;101688.85;;;17.61;35.48
49063;BME280;34876;51.464;-0.150;2023-04-27T04:55:06;101692.41;;;17.63;35.44
49063;BME280;34876;51.464;-0.150;2023-04-27T04:57:36;101690.52;;;17.62;35.44
49063;BME280;34876;51.464;-0.150;2023-04-27T05:00:06;101690.76;;;17.63;35.43
49063;BME280;34876;51.464;-0.150;2023-04-27T05:02:37;101695.22;;;17.65;35.42
49063;BME280;34876;51.464;-0.150;2023-04-27T05:05:07;101702.65;;;17.66;35.44
49063;BME280;34876;51.464;-0.150;2023-04-27T05:07:36;101707.63;;;17.61;35.48
49063;BME280;34876;51.464;-0.150;2023-04-27T05:10:06;101706.82;;;17.63;35.46
49063;BME280;34876;51.464;-0.150;2023-04-27T05:12:36;101699.74;;;17.64;35.52
49063;BME280;34876;51.464;-0.150;2023-04-27T05:15:06;101692.68;;;17.66;35.44
49063;BME280;34876;51.464;-0.150;2023-04-27T05:17:35;101688.95;;;17.50;35.72
49063;BME280;34876;51.464;-0.150;2023-04-27T05:20:06;101685.13;;;17.61;35.53
49063;BME280;34876;51.464;-0.150;2023-04-27T05:22:35;101688.79;;;17.61;35.56
49063;BME280;34876;51.464;-0.150;2023-04-27T05:25:05;101687.59;;;17.58;35.59
49063;BME280;34876;51.464;-0.150;2023-04-27T05:27:39;101691.67;;;17.61;35.57
49063;BME280;34876;51.464;-0.150;2023-04-27T05:30:09;101690.99;;;17.48;35.85
49063;BME280;34876;51.464;-0.150;2023-04-27T05:32:39;101689.44;;;17.52;35.75
49063;BME280;34876;51.464;-0.150;2023-04-27T05:35:10;101692.03;;;17.61;35.58
49063;BME280;34876;51.464;-0.150;2023-04-27T05:37:40;101689.94;;;17.64;35.52
49063;BME280;34876;51.464;-0.150;2023-04-27T05:40:09;101689.65;;;17.65;35.51
49063;BME280;34876;51.464;-0.150;2023-04-27T05:42:50;101688.11;;;17.52;35.76
49063;BME280;34876;51.464;-0.150;2023-04-27T05:45:19;101692.38;;;17.54;35.72
49063;BME280;34876;51.464;-0.150;2023-04-27T05:47:48;101691.08;;;16.97;36.88
49063;BME280;34876;51.464;-0.150;2023-04-27T05:50:18;101689.89;;;17.51;35.84
49063;BME280;34876;51.464;-0.150;2023-04-27T05:52:47;101687.49;;;17.67;35.54
49063;BME280;34876;51.464;-0.150;2023-04-27T05:55:16;101685.04;;;17.49;35.79
49063;BME280;34876;51.464;-0.150;2023-04-27T05:57:46;101686.53;;;17.26;36.32
49063;BME280;34876;51.464;-0.150;2023-04-27T06:00:16;101692.50;;;17.27;36.32
49063;BME280;34876;51.464;-0.150;2023-04-27T06:02:45;101697.95;;;16.97;36.94
49063;BME280;34876;51.464;-0.150;2023-04-27T06:05:15;101696.50;;;17.58;35.75
49063;BME280;34876;51.464;-0.150;2023-04-27T06:07:44;101694.02;;;17.78;35.34
49063;BME280;34876;51.464;-0.150;2023-04-27T06:10:14;101693.76;;;17.76;35.36
49063;BME280;34876;51.464;-0.150;2023-04-27T06:12:43;101694.09;;;17.64;35.61
49063;BME280;34876;51.464;-0.150;2023-04-27T06:15:12;101694.04;;;17.64;35.63
49063;BME280;34876;51.464;-0.150;2023-04-27T06:17:41;101693.19;;;17.57;35.79
49063;BME280;34876;51.464;-0.150;2023-04-27T06:20:11;101693.39;;;16.53;37.76
49063;BME280;34876;51.464;-0.150;2023-04-27T06:22:39;101693.99;;;16.90;37.22
49063;BME280;34876;51.464;-0.150;2023-04-27T06:25:10;101697.88;;;16.90;37.56
49063;BME280;34876;51.464;-0.150;2023-04-27T06:27:39;101705.88;;;17.42;36.18
49063;BME280;34876;51.464;-0.150;2023-04-27T06:30:09;101708.03;;;17.53;35.91
49063;BME280;34876;51.464;-0.150;2023-04-27T06:32:38;101703.54;;;17.61;35.77
49063;BME280;34876;51.464;-0.150;2023-04-27T06:35:09;101705.49;;;17.55;35.88
49063;BME280;34876;51.464;-0.150;2023-04-27T06:37:38;101702.22;;;17.66;35.64
49063;BME280;34876;51.464;-0.150;2023-04-27T06:40:08;101704.70;;;17.68;35.64
49063;BME280;34876;51.464;-0.150;2023-04-27T06:42:38;101703.24;;;17.68;35.67
49063;BME280;34876;51.464;-0.150;2023-04-27T06:45:08;101698.05;;;17.12;36.78
49063;BME280;34876;51.464;-0.150;2023-04-27T06:47:37;101691.76;;;17.52;36.02
49063;BME280;34876;51.464;-0.150;2023-04-27T06:50:09;101687.95;;;17.41;36.22
49063;BME280;34876;51.464;-0.150;2023-04-27T06:52:39;101686.81;;;17.14;36.81
49063;BME280;34876;51.464;-0.150;2023-04-27T06:55:15;101689.41;;;17.39;36.34
49063;BME280;34876;51.464;-0.150;2023-04-27T06:57:46;101687.85;;;17.60;35.90
49063;BME280;34876;51.464;-0.150;2023-04-27T07:00:17;101686.22;;;16.91;37.78
49063;BME280;34876;51.464;-0.150;2023-04-27T07:02:47;101686.56;;;16.61;37.92
49063;BME280;34876;51.464;-0.150;2023-04-27T07:05:16;101684.37;;;17.15;36.90
49063;BME280;34876;51.464;-0.150;2023-04-27T07:07:47;101687.90;;;17.02;37.12
49063;BME280;34876;51.464;-0.150;2023-04-27T07:10:16;101686.41;;;17.22;36.76
49063;BME280;34876;51.464;-0.150;2023-04-27T07:12:49;101690.46;;;17.47;36.23
49063;BME280;34876;51.464;-0.150;2023-04-27T07:15:22;101691.26;;;17.60;35.95
49063;BME280;34876;51.464;-0.150;2023-04-27T07:17:53;101690.95;;;17.61;35.97
49063;BME280;34876;51.464;-0.150;2023-04-27T07:20:23;101687.04;;;17.17;36.80
49063;BME280;34876;51.464;-0.150;2023-04-27T07:22:52;101681.61;;;17.45;36.26
49063;BME280;34876;51.464;-0.150;2023-04-27T07:25:22;101676.69;;;17.60;36.02
49063;BME280;34876;51.464;-0.150;2023-04-27T07:27:51;101673.19;;;17.66;35.85
49063;BME280;34876;51.464;-0.150;2023-04-27T07:30:20;101677.70;;;17.26;36.57
49063;BME280;34876;51.464;-0.150;2023-04-27T07:32:50;101680.04;;;16.78;37.31
49063;BME280;34876;51.464;-0.150;2023-04-27T07:35:20;101681.34;;;17.44;36.29
49063;BME280;34876;51.464;-0.150;2023-04-27T07:37:51;101682.71;;;17.24;36.74
49063;BME280;34876;51.464;-0.150;2023-04-27T07:40:21;101681.55;;;17.54;36.08
49063;BME280;34876;51.464;-0.150;2023-04-27T07:42:51;101682.05;;;17.12;36.77
49063;BME280;34876;51.464;-0.150;2023-04-27T07:45:21;101683.56;;;17.15;36.83
49063;BME280;34876;51.464;-0.150;2023-04-27T07:47:55;101676.56;;;17.47;36.20
49063;BME280;34876;51.464;-0.150;2023-04-27T07:50:25;101673.97;;;17.35;36.40
49063;BME280;34876;51.464;-0.150;2023-04-27T07:52:56;101673.86;;;17.58;35.93
49063;BME280;34876;51.464;-0.150;2023-04-27T07:55:26;101677.01;;;17.58;35.93
49063;BME280;34876;51.464;-0.150;2023-04-27T07:57:55;101680.84;;;17.67;35.74
49063;BME280;34876;51.464;-0.150;2023-04-27T08:00:25;101679.94;;;17.20;36.09
49063;BME280;34876;51.464;-0.150;2023-04-27T08:02:55;101680.68;;;17.13;36.22
49063;BME280;34876;51.464;-0.150;2023-04-27T08:05:25;101674.28;;;17.23;36.57
49063;BME280;34876;51.464;-0.150;2023-04-27T08:07:54;101668.33;;;17.10;36.64
49063;BME280;34876;51.464;-0.150;2023-04-27T08:10:24;101662.86;;;16.83;37.39
49063;BME280;34876;51.464;-0.150;2023-04-27T08:12:53;101665.90;;;17.48;36.09
49063;BME280;34876;51.464;-0.150;2023-04-27T08:15:23;101668.65;;;17.17;35.89
49063;BME280;34876;51.464;-0.150;2023-04-27T08:17:53;101664.76;;;17.19;36.57
49063;BME280;34876;51.464;-0.150;2023-04-27T08:20:23;101659.44;;;16.50;37.57
49063;BME280;34876;51.464;-0.150;2023-04-27T08:22:57;101664.49;;;16.66;37.48
49063;BME280;34876;51.464;-0.150;2023-04-27T08:25:26;101672.55;;;15.94;37.35
49063;BME280;34876;51.464;-0.150;2023-04-27T08:27:55;101668.61;;;16.56;37.79
49063;BME280;34876;51.464;-0.150;2023-04-27T08:30:25;101674.17;;;15.83;38.82
49063;BME280;34876;51.464;-0.150;2023-04-27T08:32:55;101669.09;;;16.49;37.99
49063;BME280;34876;51.464;-0.150;2023-04-27T08:35:23;101665.37;;;16.33;36.65
49063;BME280;34876;51.464;-0.150;2023-04-27T08:37:53;101664.50;;;17.00;36.91
49063;BME280;34876;51.464;-0.150;2023-04-27T08:40:24;101657.20;;;16.77;36.10
49063;BME280;34876;51.464;-0.150;2023-04-27T08:42:55;101652.85;;;16.55;37.27
49063;BME280;34876;51.464;-0.150;2023-04-27T08:45:26;101648.38;;;17.13;36.65
49063;BME280;34876;51.464;-0.150;2023-04-27T08:47:55;101652.35;;;17.30;36.09
49063;BME280;34876;51.464;-0.150;2023-04-27T08:50:28;101654.67;;;17.14;36.46
49063;BME280;34876;51.464;-0.150;2023-04-27T08:52:58;101656.51;;;16.56;37.40
49063;BME280;34876;51.464;-0.150;2023-04-27T08:55:28;101658.75;;;17.11;36.48
49063;BME280;34876;51.464;-0.150;2023-04-27T08:57:58;101654.50;;;17.43;35.94
49063;BME280;34876;51.464;-0.150;2023-04-27T09:00:37;101652.67;;;17.45;35.87
49063;BME280;34876;51.464;-0.150;2023-04-27T09:03:06;101653.54;;;17.31;35.87
49063;BME280;34876;51.464;-0.150;2023-04-27T09:05:35;101643.58;;;16.84;34.92
49063;BME280;34876;51.464;-0.150;2023-04-27T09:08:06;101638.41;;;17.46;35.42
49063;BME280;34876;51.464;-0.150;2023-04-27T09:10:44;101636.82;;;15.68;36.31
49063;BME280;34876;51.464;-0.150;2023-04-27T09:13:18;101632.31;;;16.21;38.10
49063;BME280;34876;51.464;-0.150;2023-04-27T09:15:49;101630.12;;;16.49;36.28
49063;BME280;34876;51.464;-0.150;2023-04-27T09:18:20;101627.20;;;16.36;37.65
49063;BME280;34876;51.464;-0.150;2023-04-27T09:20:52;101615.81;;;16.75;37.08
49063;BME280;34876;51.464;-0.150;2023-04-27T09:23:29;101613.80;;;17.62;35.38
49063;BME280;34876;51.464;-0.150;2023-04-27T09:26:00;101612.59;;;16.50;36.99
49063;BME280;34876;51.464;-0.150;2023-04-27T09:28:30;101612.33;;;16.36;34.12
49063;BME280;34876;51.464;-0.150;2023-04-27T09:31:01;101609.08;;;16.61;33.76
49063;BME280;34876;51.464;-0.150;2023-04-27T09:33:32;101620.54;;;17.04;33.86
49063;BME280;34876;51.464;-0.150;2023-04-27T09:36:04;101626.90;;;16.06;34.76
49063;BME280;34876;51.464;-0.150;2023-04-27T09:38:34;101617.73;;;15.57;38.07
49063;BME280;34876;51.464;-0.150;2023-04-27T09:41:03;101607.49;;;16.17;35.28
49063;BME280;34876;51.464;-0.150;2023-04-27T09:43:32;101612.35;;;16.34;36.48
49063;BME280;34876;51.464;-0.150;2023-04-27T09:46:03;101614.05;;;16.13;34.66
49063;BME280;34876;51.464;-0.150;2023-04-27T09:48:33;101608.50;;;16.32;36.30
49063;BME280;34876;51.464;-0.150;2023-04-27T09:51:03;101606.86;;;16.99;35.90
49063;BME280;34876;51.464;-0.150;2023-04-27T09:53:37;101604.11;;;16.34;36.55
49063;BME280;34876;51.464;-0.150;2023-04-27T09:56:22;101605.23;;;16.85;36.55
49063;BME280;34876;51.464;-0.150;2023-04-27T09:59:04;101598.63;;;17.55;35.17
49063;BME280;34876;51.464;-0.150;2023-04-27T10:01:42;101601.88;;;15.89;38.02
49063;BME280;34876;51.464;-0.150;2023-04-27T10:04:26;101604.27;;;15.71;38.49
49063;BME280;34876;51.464;-0.150;2023-04-27T10:06:59;101599.65;;;17.04;36.28
49063;BME280;34876;51.464;-0.150;2023-04-27T10:09:35;101590.14;;;16.75;36.51
49063;BME280;34876;51.464;-0.150;2023-04-27T10:12:21;101594.90;;;15.84;37.71
49063;BME280;34876;51.464;-0.150;2023-04-27T10:14:52;101579.95;;;16.18;37.62
49063;BME280;34876;51.464;-0.150;2023-04-27T10:17:30;101581.22;;;15.72;38.12
49063;BME280;34876;51.464;-0.150;2023-04-27T10:20:00;101585.69;;;16.68;37.21
49063;BME280;34876;51.464;-0.150;2023-04-27T10:22:39;101576.89;;;16.18;37.93
49063;BME280;34876;51.464;-0.150;2023-04-27T10:25:15;101571.53;;;15.92;38.12
49063;BME280;34876;51.464;-0.150;2023-04-27T10:27:49;101567.57;;;15.89;38.39
49063;BME280;34876;51.464;-0.150;2023-04-27T10:30:20;101561.31;;;15.61;38.53
49063;BME280;34876;51.464;-0.150;2023-04-27T10:32:51;101554.94;;;16.49;37.47
49063;BME280;34876;51.464;-0.150;2023-04-27T10:35:31;101550.79;;;16.69;37.34
49063;BME280;34876;51.464;-0.150;2023-04-27T10:38:09;101556.79;;;16.70;35.73
49063;BME280;34876;51.464;-0.150;2023-04-27T10:40:38;101556.07;;;17.02;35.56
49063;BME280;34876;51.464;-0.150;2023-04-27T10:43:10;101560.61;;;17.02;34.46
49063;BME280;34876;51.464;-0.150;2023-04-27T10:45:40;101551.85;;;16.80;35.51
49063;BME280;34876;51.464;-0.150;2023-04-27T10:48:12;101539.87;;;17.81;34.93
49063;BME280;34876;51.464;-0.150;2023-04-27T10:50:42;101533.41;;;17.48;33.02
49063;BME280;34876;51.464;-0.150;2023-04-27T10:53:13;101538.22;;;16.29;35.21
49063;BME280;34876;51.464;-0.150;2023-04-27T10:55:43;101528.77;;;17.35;35.92
49063;BME280;34876;51.464;-0.150;2023-04-27T10:58:12;101528.39;;;17.42;34.23
49063;BME280;34876;51.464;-0.150;2023-04-27T11:00:42;101524.16;;;17.47;33.90
49063;BME280;34876;51.464;-0.150;2023-04-27T11:03:19;101517.43;;;17.49;35.54
49063;BME280;34876;51.464;-0.150;2023-04-27T11:05:59;101524.84;;;17.02;34.23
49063;BME280;34876;51.464;-0.150;2023-04-27T11:08:30;101511.53;;;17.62;35.31
49063;BME280;34876;51.464;-0.150;2023-04-27T11:11:00;101501.85;;;17.95;33.94
49063;BME280;34876;51.464;-0.150;2023-04-27T11:13:29;101498.02;;;17.42;33.42
49063;BME280;34876;51.464;-0.150;2023-04-27T11:15:59;101490.16;;;17.61;35.28
49063;BME280;34876;51.464;-0.150;2023-04-27T11:18:30;101495.54;;;16.81;35.17
49063;BME280;34876;51.464;-0.150;2023-04-27T11:21:07;101488.52;;;17.35;34.71
49063;BME280;34876;51.464;-0.150;2023-04-27T11:23:37;101483.02;;;17.41;34.16
49063;BME280;34876;51.464;-0.150;2023-04-27T11:26:10;101480.85;;;17.52;35.41
49063;BME280;34876;51.464;-0.150;2023-04-27T11:28:39;101482.45;;;17.41;34.49
49063;BME280;34876;51.464;-0.150;2023-04-27T11:31:09;101485.85;;;16.31;36.25
49063;BME280;34876;51.464;-0.150;2023-04-27T11:33:47;101475.15;;;17.18;36.24
49063;BME280;34876;51.464;-0.150;2023-04-27T11:36:16;101471.03;;;16.49;37.05
49063;BME280;34876;51.464;-0.150;2023-04-27T11:38:46;101465.74;;;17.59;34.72
49063;BME280;34876;51.464;-0.150;2023-04-27T11:41:16;101457.50;;;17.79;35.08
49063;BME280;34876;51.464;-0.150;2023-04-27T11:43:45;101468.48;;;16.73;36.19
49063;BME280;34876;51.464;-0.150;2023-04-27T11:46:14;101463.02;;;17.22;36.24
49063;BME280;34876;51.464;-0.150;2023-04-27T11:48:43;101456.73;;;17.58;35.26
49063;BME280;34876;51.464;-0.150;2023-04-27T11:51:12;101455.19;;;17.72;34.07
49063;BME280;34876;51.464;-0.150;2023-04-27T11:53:47;101456.52;;;17.60;33.91
49063;BME280;34876;51.464;-0.150;2023-04-27T11:56:16;101458.58;;;17.51;33.88
49063;BME280;34876;51.464;-0.150;2023-04-27T11:58:45;101448.88;;;17.69;35.34
49063;BME280;34876;51.464;-0.150;2023-04-27T12:01:15;101455.32;;;16.41;35.54
49063;BME280;34876;51.464;-0.150;2023-04-27T12:03:44;101445.13;;;17.21;35.94
49063;BME280;34876;51.464;-0.150;2023-04-27T12:06:14;101436.95;;;17.36;35.63
49063;BME280;34876;51.464;-0.150;2023-04-27T12:08:44;101428.64;;;17.47;34.53
49063;BME280;34876;51.464;-0.150;2023-04-27T12:11:14;101437.68;;;16.77;35.60
49063;BME280;34876;51.464;-0.150;2023-04-27T12:13:49;101429.74;;;17.63;35.48
49063;BME280;34876;51.464;-0.150;2023-04-27T12:16:18;101427.94;;;17.69;35.39
49063;BME280;34876;51.464;-0.150;2023-04-27T12:18:48;101427.63;;;17.32;34.84
49063;BME280;34876;51.464;-0.150;2023-04-27T12:21:18;101423.84;;;17.34;35.25
49063;BME280;34876;51.464;-0.150;2023-04-27T12:23:48;101422.20;;;17.61;35.32
49063;BME280;34876;51.464;-0.150;2023-04-27T12:26:16;101414.99;;;17.71;35.42
49063;BME280;34876;51.464;-0.150;2023-04-27T12:28:46;101413.02;;;17.60;34.94
49063;BME280;34876;51.464;-0.150;2023-04-27T12:31:15;101405.26;;;17.81;35.23
49063;BME280;34876;51.464;-0.150;2023-04-27T12:33:45;101404.63;;;17.15;35.70
49063;BME280;34876;51.464;-0.150;2023-04-27T12:36:15;101411.50;;;16.75;35.91
49063;BME280;34876;51.464;-0.150;2023-04-27T12:38:45;101409.93;;;17.43;35.98
49063;BME280;34876;51.464;-0.150;2023-04-27T12:41:14;101410.17;;;17.34;35.16
49063;BME280;34876;51.464;-0.150;2023-04-27T12:43:44;101403.30;;;16.81;36.23
49063;BME280;34876;51.464;-0.150;2023-04-27T12:46:13;101387.42;;;17.62;35.61
49063;BME280;34876;51.464;-0.150;2023-04-27T12:48:42;101386.51;;;17.20;35.45
49063;BME280;34876;51.464;-0.150;2023-04-27T12:51:12;101388.28;;;16.80;37.07
49063;BME280;34876;51.464;-0.150;2023-04-27T12:53:41;101389.56;;;16.93;36.88
49063;BME280;34876;51.464;-0.150;2023-04-27T12:56:11;101379.60;;;16.71;36.97